sensor_id;sensor_type;location;lat;lon;timestamp;temperature;humidity
63875;DHT22;51595;24.180;-110.296;2022-12-22T00:01:54;19.40;99.90
63875;DHT22;51595;24.180;-110.296;2022-12-22T00:04:42;19.40;99.90
63875;DHT22;51595;24.180;-110.296;2022-12-22T00:07:28;19.40;99.90
63875;DHT22;51595;24.180;-110.296;2022-12-22T00:10:12;17.00;99.90
63875;DHT22;51595;24.180;-110.296;2022-12-22T00:12:57;19.20;99.90
63875;DHT22;51595;24.180;-110.296;2022-12-22T00:15:42;19.10;99.90
63875;DHT22;51595;24.180;-110.296;2022-12-22T00:18:29;19.10;99.90
63875;DHT22;51595;24.180;-110.296;2022-12-22T00:21:14;19.10;99.90
63875;DHT22;51595;24.180;-110.296;2022-12-22T00:23:59;19.00;99.90
63875;DHT22;51595;24.180;-110.296;2022-12-22T00:26:44;19.00;99.90
63875;DHT22;51595;24.180;-110.296;2022-12-22T00:29:35;19.00;99.90
63875;DHT22;51595;24.180;-110.296;2022-12-22T00:32:21;18.80;99.90
63875;DHT22;51595;24.180;-110.296;2022-12-22T00:35:12;18.80;99.90
63875;DHT22;51595;24.180;-110.296;2022-12-22T00:37:57;18.70;99.90
63875;DHT22;51595;24.180;-110.296;2022-12-22T00:40:42;18.70;99.90
63875;DHT22;51595;24.180;-110.296;2022-12-22T00:43:26;18.60;99.90
63875;DHT22;51595;24.180;-110.296;2022-12-22T00:46:13;18.50;99.90
63875;DHT22;51595;24.180;-110.296;2022-12-22T00:48:58;18.50;99.90
63875;DHT22;51595;24.180;-110.296;2022-12-22T00:51:44;18.50;99.90
63875;DHT22;51595;24.180;-110.296;2022-12-22T00:54:28;18.50;99.90
63875;DHT22;51595;24.180;-110.296;2022-12-22T00:57:18;18.40;99.90
63875;DHT22;51595;24.180;-110.296;2022-12-22T01:00:09;18.40;99.90
63875;DHT22;51595;24.180;-110.296;2022-12-22T01:02:57;18.30;99.90
63875;DHT22;51595;24.180;-110.296;2022-12-22T01:05:42;18.30;99.90
63875;DHT22;51595;24.180;-110.296;2022-12-22T01:08:26;18.30;99.90
63875;DHT22;51595;24.180;-110.296;2022-12-22T01:11:11;18.30;99.90
63875;DHT22;51595;24.180;-110.296;2022-12-22T01:13:56;18.30;99.90
63875;DHT22;51595;24.180;-110.296;2022-12-22T01:16:40;18.20;99.90
63875;DHT22;51595;24.180;-110.296;2022-12-22T01:19:25;18.20;99.90
63875;DHT22;51595;24.180;-110.296;2022-12-22T01:22:16;18.20;99.90
63875;DHT22;51595;24.180;-110.296;2022-12-22T01:25:09;18.20;99.90
63875;DHT22;51595;24.180;-110.296;2022-12-22T01:27:54;18.20;99.90
63875;DHT22;51595;24.180;-110.296;2022-12-22T01:30:39;18.20;99.90
63875;DHT22;51595;24.180;-110.296;2022-12-22T01:33:24;18.20;99.90
63875;DHT22;51595;24.180;-110.296;2022-12-22T01:36:08;18.20;99.90
63875;DHT22;51595;24.180;-110.296;2022-12-22T01:38:53;18.10;99.90
63875;DHT22;51595;24.180;-110.296;2022-12-22T01:41:38;18.10;99.90
63875;DHT22;51595;24.180;-110.296;2022-12-22T01:44:23;18.10;99.90
63875;DHT22;51595;24.180;-110.296;2022-12-22T01:50:18;18.00;99.90
63875;DHT22;51595;24.180;-110.296;2022-12-22T01:53:07;18.10;99.90
63875;DHT22;51595;24.180;-110.296;2022-12-22T01:55:57;17.90;99.90
63875;DHT22;51595;24.180;-110.296;2022-12-22T01:58:47;17.90;99.90
63875;DHT22;51595;24.180;-110.296;2022-12-22T02:01:33;17.80;99.90
63875;DHT22;51595;24.180;-110.296;2022-12-22T02:04:21;17.80;99.90
63875;DHT22;51595;24.180;-110.296;2022-12-22T02:07:27;17.80;99.90
63875;DHT22;51595;24.180;-110.296;2022-12-22T02:29:34;17.70;99.90
63875;DHT22;51595;24.180;-110.296;2022-12-22T02:32:22;17.70;99.90
63875;DHT22;51595;24.180;-110.296;2022-12-22T02:35:16;17.60;99.90
63875;DHT22;51595;24.180;-110.296;2022-12-22T02:40:58;17.60;99.90
63875;DHT22;51595;24.180;-110.296;2022-12-22T02:50:23;17.50;99.90
63875;DHT22;51595;24.180;-110.296;2022-12-22T02:53:11;17.50;99.90
63875;DHT22;51595;24.180;-110.296;2022-12-22T02:56:07;17.50;99.90
63875;DHT22;51595;24.180;-110.296;2022-12-22T02:58:52;17.50;99.90
63875;DHT22;51595;24.180;-110.296;2022-12-22T03:01:37;17.40;99.90
63875;DHT22;51595;24.180;-110.296;2022-12-22T03:04:22;17.40;99.90
63875;DHT22;51595;24.180;-110.296;2022-12-22T03:07:07;17.30;99.90
63875;DHT22;51595;24.180;-110.296;2022-12-22T03:09:51;17.30;99.90
63875;DHT22;51595;24.180;-110.296;2022-12-22T03:12:36;17.40;99.90
63875;DHT22;51595;24.180;-110.296;2022-12-22T03:15:20;17.40;99.90
63875;DHT22;51595;24.180;-110.296;2022-12-22T03:18:07;17.40;99.90
63875;DHT22;51595;24.180;-110.296;2022-12-22T03:20:53;17.50;99.90
63875;DHT22;51595;24.180;-110.296;2022-12-22T03:23:38;17.40;99.90
63875;DHT22;51595;24.180;-110.296;2022-12-22T03:26:23;17.40;99.90
63875;DHT22;51595;24.180;-110.296;2022-12-22T03:28:49;17.30;99.90
63875;DHT22;51595;24.180;-110.296;2022-12-22T03:31:16;17.20;99.90
63875;DHT22;51595;24.180;-110.296;2022-12-22T03:33:43;17.20;99.90
63875;DHT22;51595;24.180;-110.296;2022-12-22T03:36:09;17.20;99.90
63875;DHT22;51595;24.180;-110.296;2022-12-22T03:38:36;17.20;99.90
63875;DHT22;51595;24.180;-110.296;2022-12-22T03:41:03;17.10;99.90
63875;DHT22;51595;24.180;-110.296;2022-12-22T03:43:30;17.20;99.90
63875;DHT22;51595;24.180;-110.296;2022-12-22T03:46:16;17.20;99.90
63875;DHT22;51595;24.180;-110.296;2022-12-22T03:48:43;17.30;99.90
63875;DHT22;51595;24.180;-110.296;2022-12-22T03:51:30;17.30;99.90
63875;DHT22;51595;24.180;-110.296;2022-12-22T03:53:57;17.30;99.90
63875;DHT22;51595;24.180;-110.296;2022-12-22T03:56:23;17.20;99.90
63875;DHT22;51595;24.180;-110.296;2022-12-22T03:58:49;17.20;99.90
63875;DHT22;51595;24.180;-110.296;2022-12-22T04:01:16;17.10;99.90
63875;DHT22;51595;24.180;-110.296;2022-12-22T04:03:42;17.10;99.90
63875;DHT22;51595;24.180;-110.296;2022-12-22T04:06:09;17.00;99.90
63875;DHT22;51595;24.180;-110.296;2022-12-22T04:08:35;17.10;99.90
63875;DHT22;51595;24.180;-110.296;2022-12-22T04:11:02;17.10;99.90
63875;DHT22;51595;24.180;-110.296;2022-12-22T04:13:46;17.10;99.90
63875;DHT22;51595;24.180;-110.296;2022-12-22T04:16:13;17.10;99.90
63875;DHT22;51595;24.180;-110.296;2022-12-22T04:18:39;17.10;99.90
63875;DHT22;51595;24.180;-110.296;2022-12-22T04:21:07;17.20;99.90
63875;DHT22;51595;24.180;-110.296;2022-12-22T04:23:33;17.30;99.90
63875;DHT22;51595;24.180;-110.296;2022-12-22T04:26:00;17.30;99.90
63875;DHT22;51595;24.180;-110.296;2022-12-22T04:28:26;17.20;99.90
63875;DHT22;51595;24.180;-110.296;2022-12-22T04:30:52;17.00;99.90
63875;DHT22;51595;24.180;-110.296;2022-12-22T04:33:19;17.10;99.90
63875;DHT22;51595;24.180;-110.296;2022-12-22T04:35:45;17.00;99.90
63875;DHT22;51595;24.180;-110.296;2022-12-22T04:38:12;17.00;99.90
63875;DHT22;51595;24.180;-110.296;2022-12-22T04:40:38;16.90;99.90
63875;DHT22;51595;24.180;-110.296;2022-12-22T04:43:05;17.20;99.90
63875;DHT22;51595;24.180;-110.296;2022-12-22T04:45:32;17.20;99.90
63875;DHT22;51595;24.180;-110.296;2022-12-22T04:47:58;17.20;99.90
63875;DHT22;51595;24.180;-110.296;2022-12-22T04:50:25;17.10;99.90
63875;DHT22;51595;24.180;-110.296;2022-12-22T04:52:52;17.10;99.90
63875;DHT22;51595;24.180;-110.296;2022-12-22T04:55:18;17.00;99.90
63875;DHT22;51595;24.180;-110.296;2022-12-22T04:57:45;16.90;99.90
63875;DHT22;51595;24.180;-110.296;2022-12-22T05:00:11;16.90;99.90
63875;DHT22;51595;24.180;-110.296;2022-12-22T05:02:38;16.90;99.90
63875;DHT22;51595;24.180;-110.296;2022-12-22T05:05:05;16.90;99.90
63875;DHT22;51595;24.180;-110.296;2022-12-22T05:07:31;16.80;99.90
63875;DHT22;51595;24.180;-110.296;2022-12-22T05:09:58;16.80;99.90
63875;DHT22;51595;24.180;-110.296;2022-12-22T05:12:24;16.80;99.90
63875;DHT22;51595;24.180;-110.296;2022-12-22T05:15:09;16.90;99.90
63875;DHT22;51595;24.180;-110.296;2022-12-22T05:17:36;16.90;99.90
63875;DHT22;51595;24.180;-110.296;2022-12-22T05:20:02;16.90;99.90
63875;DHT22;51595;24.180;-110.296;2022-12-22T05:22:29;16.90;99.90
63875;DHT22;51595;24.180;-110.296;2022-12-22T05:24:55;16.80;99.90
63875;DHT22;51595;24.180;-110.296;2022-12-22T05:29:48;16.90;99.90
63875;DHT22;51595;24.180;-110.296;2022-12-22T05:32:15;16.80;99.90
63875;DHT22;51595;24.180;-110.296;2022-12-22T05:34:41;16.80;99.90
63875;DHT22;51595;24.180;-110.296;2022-12-22T05:37:08;16.80;99.90
63875;DHT22;51595;24.180;-110.296;2022-12-22T05:39:34;16.80;99.90
63875;DHT22;51595;24.180;-110.296;2022-12-22T05:42:01;16.80;99.90
63875;DHT22;51595;24.180;-110.296;2022-12-22T05:44:27;16.80;99.90
63875;DHT22;51595;24.180;-110.296;2022-12-22T05:46:53;16.80;99.90
63875;DHT22;51595;24.180;-110.296;2022-12-22T05:49:20;16.80;99.90
63875;DHT22;51595;24.180;-110.296;2022-12-22T05:51:49;16.90;99.90
63875;DHT22;51595;24.180;-110.296;2022-12-22T05:54:18;16.80;99.90
63875;DHT22;51595;24.180;-110.296;2022-12-22T05:56:45;16.80;99.90
63875;DHT22;51595;24.180;-110.296;2022-12-22T05:59:11;16.80;99.90
63875;DHT22;51595;24.180;-110.296;2022-12-22T06:01:38;16.80;99.90
63875;DHT22;51595;24.180;-110.296;2022-12-22T06:04:04;16.80;99.90
63875;DHT22;51595;24.180;-110.296;2022-12-22T06:06:31;16.70;99.90
63875;DHT22;51595;24.180;-110.296;2022-12-22T06:08:59;16.80;99.90
63875;DHT22;51595;24.180;-110.296;2022-12-22T06:11:25;16.90;99.90
63875;DHT22;51595;24.180;-110.296;2022-12-22T06:13:51;16.80;99.90
63875;DHT22;51595;24.180;-110.296;2022-12-22T06:16:18;16.80;99.90
63875;DHT22;51595;24.180;-110.296;2022-12-22T06:18:44;16.60;99.90
63875;DHT22;51595;24.180;-110.296;2022-12-22T06:21:11;16.70;99.90
63875;DHT22;51595;24.180;-110.296;2022-12-22T06:23:37;16.80;99.90
63875;DHT22;51595;24.180;-110.296;2022-12-22T06:26:04;16.80;99.90
63875;DHT22;51595;24.180;-110.296;2022-12-22T06:28:31;16.80;99.90
63875;DHT22;51595;24.180;-110.296;2022-12-22T06:30:57;16.90;99.90
63875;DHT22;51595;24.180;-110.296;2022-12-22T06:33:24;16.90;99.90
63875;DHT22;51595;24.180;-110.296;2022-12-22T06:35:50;16.80;99.90
63875;DHT22;51595;24.180;-110.296;2022-12-22T06:40:43;16.80;99.90
63875;DHT22;51595;24.180;-110.296;2022-12-22T06:43:10;16.80;99.90
63875;DHT22;51595;24.180;-110.296;2022-12-22T06:45:38;16.70;99.90
63875;DHT22;51595;24.180;-110.296;2022-12-22T06:48:05;16.70;99.90
63875;DHT22;51595;24.180;-110.296;2022-12-22T06:50:32;16.80;99.90
63875;DHT22;51595;24.180;-110.296;2022-12-22T06:52:59;16.90;99.90
63875;DHT22;51595;24.180;-110.296;2022-12-22T06:55:26;16.90;99.90
63875;DHT22;51595;24.180;-110.296;2022-12-22T06:57:52;16.80;99.90
63875;DHT22;51595;24.180;-110.296;2022-12-22T07:00:19;16.90;99.90
63875;DHT22;51595;24.180;-110.296;2022-12-22T07:02:46;16.90;99.90
63875;DHT22;51595;24.180;-110.296;2022-12-22T07:05:13;16.90;99.90
63875;DHT22;51595;24.180;-110.296;2022-12-22T07:07:40;16.80;99.90
63875;DHT22;51595;24.180;-110.296;2022-12-22T07:10:07;16.90;99.90
63875;DHT22;51595;24.180;-110.296;2022-12-22T07:12:34;17.00;99.90
63875;DHT22;51595;24.180;-110.296;2022-12-22T07:15:00;17.00;99.90
63875;DHT22;51595;24.180;-110.296;2022-12-22T07:17:27;17.10;99.90
63875;DHT22;51595;24.180;-110.296;2022-12-22T07:19:53;17.00;99.90
63875;DHT22;51595;24.180;-110.296;2022-12-22T07:22:20;17.00;99.90
63875;DHT22;51595;24.180;-110.296;2022-12-22T07:24:46;17.10;99.90
63875;DHT22;51595;24.180;-110.296;2022-12-22T07:27:13;17.20;99.90
63875;DHT22;51595;24.180;-110.296;2022-12-22T07:29:39;17.10;99.90
63875;DHT22;51595;24.180;-110.296;2022-12-22T07:32:07;17.30;99.90
63875;DHT22;51595;24.180;-110.296;2022-12-22T07:34:33;17.10;99.90
63875;DHT22;51595;24.180;-110.296;2022-12-22T07:37:00;17.20;99.90
63875;DHT22;51595;24.180;-110.296;2022-12-22T07:39:26;17.20;99.90
63875;DHT22;51595;24.180;-110.296;2022-12-22T07:41:52;17.10;99.90
63875;DHT22;51595;24.180;-110.296;2022-12-22T07:44:39;16.90;99.90
63875;DHT22;51595;24.180;-110.296;2022-12-22T07:47:05;16.80;99.90
63875;DHT22;51595;24.180;-110.296;2022-12-22T07:49:32;16.80;99.90
63875;DHT22;51595;24.180;-110.296;2022-12-22T07:52:17;16.60;99.90
63875;DHT22;51595;24.180;-110.296;2022-12-22T07:54:43;16.50;99.90
63875;DHT22;51595;24.180;-110.296;2022-12-22T07:57:09;16.40;99.90
63875;DHT22;51595;24.180;-110.296;2022-12-22T07:59:36;16.40;99.90
63875;DHT22;51595;24.180;-110.296;2022-12-22T08:02:02;16.30;99.90
63875;DHT22;51595;24.180;-110.296;2022-12-22T08:04:29;16.20;99.90
63875;DHT22;51595;24.180;-110.296;2022-12-22T08:06:55;16.10;99.90
63875;DHT22;51595;24.180;-110.296;2022-12-22T08:09:22;16.00;99.90
63875;DHT22;51595;24.180;-110.296;2022-12-22T08:11:48;15.90;99.90
63875;DHT22;51595;24.180;-110.296;2022-12-22T08:14:15;15.90;99.90
63875;DHT22;51595;24.180;-110.296;2022-12-22T08:16:41;15.80;99.90
63875;DHT22;51595;24.180;-110.296;2022-12-22T08:19:08;15.70;99.90
63875;DHT22;51595;24.180;-110.296;2022-12-22T08:21:34;15.80;99.90
63875;DHT22;51595;24.180;-110.296;2022-12-22T08:24:01;16.00;99.90
63875;DHT22;51595;24.180;-110.296;2022-12-22T08:26:31;15.90;99.90
63875;DHT22;51595;24.180;-110.296;2022-12-22T08:29:25;15.90;99.90
63875;DHT22;51595;24.180;-110.296;2022-12-22T08:31:53;15.70;99.90
63875;DHT22;51595;24.180;-110.296;2022-12-22T08:34:20;15.70;99.90
63875;DHT22;51595;24.180;-110.296;2022-12-22T08:36:54;15.70;99.90
63875;DHT22;51595;24.180;-110.296;2022-12-22T08:39:23;15.80;99.90
63875;DHT22;51595;24.180;-110.296;2022-12-22T08:41:50;15.70;99.90
63875;DHT22;51595;24.180;-110.296;2022-12-22T08:44:28;15.70;99.90
63875;DHT22;51595;24.180;-110.296;2022-12-22T08:46:56;15.60;99.90
63875;DHT22;51595;24.180;-110.296;2022-12-22T08:49:24;15.70;99.90
63875;DHT22;51595;24.180;-110.296;2022-12-22T08:51:52;15.80;99.90
63875;DHT22;51595;24.180;-110.296;2022-12-22T08:54:19;15.70;99.90
63875;DHT22;51595;24.180;-110.296;2022-12-22T08:56:46;15.90;99.90
63875;DHT22;51595;24.180;-110.296;2022-12-22T08:59:13;15.90;99.90
63875;DHT22;51595;24.180;-110.296;2022-12-22T09:01:41;15.90;99.90
63875;DHT22;51595;24.180;-110.296;2022-12-22T09:04:12;15.90;99.90
63875;DHT22;51595;24.180;-110.296;2022-12-22T09:06:39;15.90;99.90
63875;DHT22;51595;24.180;-110.296;2022-12-22T09:09:08;15.90;99.90
63875;DHT22;51595;24.180;-110.296;2022-12-22T09:11:35;16.00;99.90
63875;DHT22;51595;24.180;-110.296;2022-12-22T09:14:02;16.00;99.90
63875;DHT22;51595;24.180;-110.296;2022-12-22T09:16:31;16.10;99.90
63875;DHT22;51595;24.180;-110.296;2022-12-22T09:18:58;16.10;99.90
63875;DHT22;51595;24.180;-110.296;2022-12-22T09:21:24;16.00;99.90
63875;DHT22;51595;24.180;-110.296;2022-12-22T09:23:51;16.00;99.90
63875;DHT22;51595;24.180;-110.296;2022-12-22T09:26:21;16.00;99.90
63875;DHT22;51595;24.180;-110.296;2022-12-22T09:28:48;16.00;99.90
63875;DHT22;51595;24.180;-110.296;2022-12-22T09:31:15;16.00;99.90
63875;DHT22;51595;24.180;-110.296;2022-12-22T09:33:42;16.10;99.90
63875;DHT22;51595;24.180;-110.296;2022-12-22T09:36:10;16.10;99.90
63875;DHT22;51595;24.180;-110.296;2022-12-22T09:38:38;16.10;99.90
63875;DHT22;51595;24.180;-110.296;2022-12-22T09:43:55;16.10;99.90
63875;DHT22;51595;24.180;-110.296;2022-12-22T09:46:27;16.10;99.90
63875;DHT22;51595;24.180;-110.296;2022-12-22T09:48:55;16.00;99.90
63875;DHT22;51595;24.180;-110.296;2022-12-22T09:51:22;16.00;99.90
63875;DHT22;51595;24.180;-110.296;2022-12-22T09:53:58;16.10;99.90
63875;DHT22;51595;24.180;-110.296;2022-12-22T09:56:26;16.00;99.90
63875;DHT22;51595;24.180;-110.296;2022-12-22T09:58:53;16.00;99.90
63875;DHT22;51595;24.180;-110.296;2022-12-22T10:07:46;15.80;99.90
63875;DHT22;51595;24.180;-110.296;2022-12-22T10:09:48;15.70;99.90
63875;DHT22;51595;24.180;-110.296;2022-12-22T10:12:20;15.80;99.90
63875;DHT22;51595;24.180;-110.296;2022-12-22T10:14:49;15.90;99.90
63875;DHT22;51595;24.180;-110.296;2022-12-22T10:17:28;15.90;99.90
63875;DHT22;51595;24.180;-110.296;2022-12-22T10:20:26;15.90;99.90
63875;DHT22;51595;24.180;-110.296;2022-12-22T10:25:41;16.00;99.90
63875;DHT22;51595;24.180;-110.296;2022-12-22T10:28:16;16.10;99.90
63875;DHT22;51595;24.180;-110.296;2022-12-22T10:30:44;16.20;99.90
63875;DHT22;51595;24.180;-110.296;2022-12-22T10:33:13;16.30;99.90
63875;DHT22;51595;24.180;-110.296;2022-12-22T10:38:35;15.90;99.90
63875;DHT22;51595;24.180;-110.296;2022-12-22T10:41:12;15.80;99.90
63875;DHT22;51595;24.180;-110.296;2022-12-22T10:46:46;15.90;99.90
63875;DHT22;51595;24.180;-110.296;2022-12-22T10:49:20;16.10;99.90
63875;DHT22;51595;24.180;-110.296;2022-12-22T10:51:51;16.50;99.90
63875;DHT22;51595;24.180;-110.296;2022-12-22T10:54:32;16.50;99.90
63875;DHT22;51595;24.180;-110.296;2022-12-22T10:57:17;16.60;99.90
63875;DHT22;51595;24.180;-110.296;2022-12-22T10:59:57;16.50;99.90
63875;DHT22;51595;24.180;-110.296;2022-12-22T11:02:36;16.20;99.90
63875;DHT22;51595;24.180;-110.296;2022-12-22T11:07:37;15.40;99.90
63875;DHT22;51595;24.180;-110.296;2022-12-22T11:12:55;15.50;99.90
63875;DHT22;51595;24.180;-110.296;2022-12-22T11:15:56;15.60;99.90
63875;DHT22;51595;24.180;-110.296;2022-12-22T11:26:35;15.90;99.90
63875;DHT22;51595;24.180;-110.296;2022-12-22T11:29:27;16.20;99.90
63875;DHT22;51595;24.180;-110.296;2022-12-22T11:56:46;16.40;99.90
63875;DHT22;51595;24.180;-110.296;2022-12-22T12:04:57;15.80;99.90
63875;DHT22;51595;24.180;-110.296;2022-12-22T12:13:12;15.80;99.90
63875;DHT22;51595;24.180;-110.296;2022-12-22T12:15:50;15.80;99.90
63875;DHT22;51595;24.180;-110.296;2022-12-22T12:18:27;15.70;99.90
63875;DHT22;51595;24.180;-110.296;2022-12-22T12:21:05;15.70;99.90
63875;DHT22;51595;24.180;-110.296;2022-12-22T12:24:09;15.60;99.90
63875;DHT22;51595;24.180;-110.296;2022-12-22T12:29:24;16.00;99.90
63875;DHT22;51595;24.180;-110.296;2022-12-22T12:34:22;16.40;99.90
63875;DHT22;51595;24.180;-110.296;2022-12-22T12:37:00;16.40;99.90
63875;DHT22;51595;24.180;-110.296;2022-12-22T12:44:49;16.30;99.90
63875;DHT22;51595;24.180;-110.296;2022-12-22T12:47:30;16.30;99.90
63875;DHT22;51595;24.180;-110.296;2022-12-22T12:55:32;15.80;99.90
63875;DHT22;51595;24.180;-110.296;2022-12-22T12:58:00;15.70;99.90
63875;DHT22;51595;24.180;-110.296;2022-12-22T13:03:01;15.50;99.90
63875;DHT22;51595;24.180;-110.296;2022-12-22T13:21:23;15.10;99.90
63875;DHT22;51595;24.180;-110.296;2022-12-22T13:24:20;15.10;99.90
63875;DHT22;51595;24.180;-110.296;2022-12-22T13:26:49;15.20;99.90
63875;DHT22;51595;24.180;-110.296;2022-12-22T13:29:45;15.20;99.90
63875;DHT22;51595;24.180;-110.296;2022-12-22T13:32:21;15.20;99.90
63875;DHT22;51595;24.180;-110.296;2022-12-22T13:35:38;15.20;99.90
63875;DHT22;51595;24.180;-110.296;2022-12-22T13:37:47;15.30;99.90
63875;DHT22;51595;24.180;-110.296;2022-12-22T13:40:34;15.40;99.90
63875;DHT22;51595;24.180;-110.296;2022-12-22T13:43:10;15.60;99.90
63875;DHT22;51595;24.180;-110.296;2022-12-22T13:45:53;18.70;99.90
63875;DHT22;51595;24.180;-110.296;2022-12-22T13:51:01;15.60;99.90
63875;DHT22;51595;24.180;-110.296;2022-12-22T13:53:46;15.60;99.90
63875;DHT22;51595;24.180;-110.296;2022-12-22T13:56:21;15.60;99.90
63875;DHT22;51595;24.180;-110.296;2022-12-22T13:59:01;15.60;99.90
63875;DHT22;51595;24.180;-110.296;2022-12-22T14:01:28;15.70;99.90
63875;DHT22;51595;24.180;-110.296;2022-12-22T14:03:58;15.80;99.90
63875;DHT22;51595;24.180;-110.296;2022-12-22T14:11:39;16.00;99.90
63875;DHT22;51595;24.180;-110.296;2022-12-22T14:14:15;15.90;99.90
63875;DHT22;51595;24.180;-110.296;2022-12-22T14:16:48;16.00;99.90
63875;DHT22;51595;24.180;-110.296;2022-12-22T14:19:17;16.00;99.90
63875;DHT22;51595;24.180;-110.296;2022-12-22T14:21:48;16.10;99.90
63875;DHT22;51595;24.180;-110.296;2022-12-22T14:24:19;16.30;99.90
63875;DHT22;51595;24.180;-110.296;2022-12-22T14:26:47;16.60;99.90
63875;DHT22;51595;24.180;-110.296;2022-12-22T14:29:19;16.70;99.90
63875;DHT22;51595;24.180;-110.296;2022-12-22T14:32:00;17.00;99.90
63875;DHT22;51595;24.180;-110.296;2022-12-22T14:34:34;17.20;99.90
63875;DHT22;51595;24.180;-110.296;2022-12-22T14:37:01;17.30;99.90
63875;DHT22;51595;24.180;-110.296;2022-12-22T14:39:30;17.10;99.90
63875;DHT22;51595;24.180;-110.296;2022-12-22T14:42:04;17.10;99.90
63875;DHT22;51595;24.180;-110.296;2022-12-22T14:44:44;17.30;99.90
63875;DHT22;51595;24.180;-110.296;2022-12-22T14:54:58;17.50;99.90
63875;DHT22;51595;24.180;-110.296;2022-12-22T14:57:36;17.50;99.90
63875;DHT22;51595;24.180;-110.296;2022-12-22T15:00:29;17.40;99.90
63875;DHT22;51595;24.180;-110.296;2022-12-22T15:02:59;17.40;99.90
63875;DHT22;51595;24.180;-110.296;2022-12-22T15:05:34;17.50;99.90
63875;DHT22;51595;24.180;-110.296;2022-12-22T15:08:05;17.70;99.90
63875;DHT22;51595;24.180;-110.296;2022-12-22T15:10:43;17.80;99.90
63875;DHT22;51595;24.180;-110.296;2022-12-22T15:13:17;17.90;99.90
63875;DHT22;51595;24.180;-110.296;2022-12-22T15:15:45;17.90;99.90
63875;DHT22;51595;24.180;-110.296;2022-12-22T15:18:15;18.00;99.90
63875;DHT22;51595;24.180;-110.296;2022-12-22T15:20:42;18.10;99.90
63875;DHT22;51595;24.180;-110.296;2022-12-22T15:23:13;18.40;99.90
63875;DHT22;51595;24.180;-110.296;2022-12-22T15:25:42;18.50;99.90
63875;DHT22;51595;24.180;-110.296;2022-12-22T15:28:08;18.80;99.90
63875;DHT22;51595;24.180;-110.296;2022-12-22T15:30:35;18.90;99.90
63875;DHT22;51595;24.180;-110.296;2022-12-22T15:33:08;18.90;99.90
63875;DHT22;51595;24.180;-110.296;2022-12-22T15:35:35;19.20;99.90
63875;DHT22;51595;24.180;-110.296;2022-12-22T15:38:02;19.10;99.90
63875;DHT22;51595;24.180;-110.296;2022-12-22T15:40:28;19.20;99.90
63875;DHT22;51595;24.180;-110.296;2022-12-22T15:42:55;19.30;99.90
63875;DHT22;51595;24.180;-110.296;2022-12-22T15:45:21;19.60;99.90
63875;DHT22;51595;24.180;-110.296;2022-12-22T15:47:50;19.60;99.90
63875;DHT22;51595;24.180;-110.296;2022-12-22T15:50:20;19.60;99.90
63875;DHT22;51595;24.180;-110.296;2022-12-22T15:52:51;19.80;99.90
63875;DHT22;51595;24.180;-110.296;2022-12-22T15:55:19;19.90;99.90
63875;DHT22;51595;24.180;-110.296;2022-12-22T15:57:50;19.90;99.90
63875;DHT22;51595;24.180;-110.296;2022-12-22T16:00:18;19.40;99.90
63875;DHT22;51595;24.180;-110.296;2022-12-22T16:02:46;19.70;99.90
63875;DHT22;51595;24.180;-110.296;2022-12-22T16:05:14;19.70;99.90
63875;DHT22;51595;24.180;-110.296;2022-12-22T16:07:42;19.20;99.90
63875;DHT22;51595;24.180;-110.296;2022-12-22T16:12:48;19.30;99.90
63875;DHT22;51595;24.180;-110.296;2022-12-22T16:15:20;19.70;99.90
63875;DHT22;51595;24.180;-110.296;2022-12-22T16:17:47;19.80;99.90
63875;DHT22;51595;24.180;-110.296;2022-12-22T16:20:16;19.80;99.90
63875;DHT22;51595;24.180;-110.296;2022-12-22T16:22:43;19.40;99.90
63875;DHT22;51595;24.180;-110.296;2022-12-22T16:25:15;19.50;99.90
63875;DHT22;51595;24.180;-110.296;2022-12-22T16:27:42;19.70;99.90
63875;DHT22;51595;24.180;-110.296;2022-12-22T16:30:19;19.70;99.90
63875;DHT22;51595;24.180;-110.296;2022-12-22T16:32:47;19.60;99.90
63875;DHT22;51595;24.180;-110.296;2022-12-22T16:35:16;20.40;99.90
63875;DHT22;51595;24.180;-110.296;2022-12-22T16:37:44;20.40;99.90
63875;DHT22;51595;24.180;-110.296;2022-12-22T16:40:12;20.40;99.90
63875;DHT22;51595;24.180;-110.296;2022-12-22T16:42:39;20.50;99.90
63875;DHT22;51595;24.180;-110.296;2022-12-22T16:45:16;20.60;99.90
63875;DHT22;51595;24.180;-110.296;2022-12-22T16:47:43;20.60;99.90
63875;DHT22;51595;24.180;-110.296;2022-12-22T16:50:16;20.80;99.90
63875;DHT22;51595;24.180;-110.296;2022-12-22T16:52:45;20.90;99.90
63875;DHT22;51595;24.180;-110.296;2022-12-22T16:55:17;20.80;99.90
63875;DHT22;51595;24.180;-110.296;2022-12-22T16:57:44;20.90;99.90
63875;DHT22;51595;24.180;-110.296;2022-12-22T17:00:37;20.90;99.90
63875;DHT22;51595;24.180;-110.296;2022-12-22T17:03:20;21.30;99.90
63875;DHT22;51595;24.180;-110.296;2022-12-22T17:05:51;21.00;99.90
63875;DHT22;51595;24.180;-110.296;2022-12-22T17:08:25;21.20;99.90
63875;DHT22;51595;24.180;-110.296;2022-12-22T17:10:54;21.50;99.90
63875;DHT22;51595;24.180;-110.296;2022-12-22T17:13:22;21.80;99.90
63875;DHT22;51595;24.180;-110.296;2022-12-22T17:15:48;21.40;99.90
63875;DHT22;51595;24.180;-110.296;2022-12-22T17:18:16;21.20;99.90
63875;DHT22;51595;24.180;-110.296;2022-12-22T17:20:45;21.60;99.90
63875;DHT22;51595;24.180;-110.296;2022-12-22T17:23:35;21.80;99.90
63875;DHT22;51595;24.180;-110.296;2022-12-22T17:26:06;22.00;99.90
63875;DHT22;51595;24.180;-110.296;2022-12-22T17:28:34;21.90;99.90
63875;DHT22;51595;24.180;-110.296;2022-12-22T17:31:01;21.90;99.90
63875;DHT22;51595;24.180;-110.296;2022-12-22T17:33:27;22.00;99.90
63875;DHT22;51595;24.180;-110.296;2022-12-22T17:35:55;21.90;99.90
63875;DHT22;51595;24.180;-110.296;2022-12-22T17:38:24;21.60;99.90
63875;DHT22;51595;24.180;-110.296;2022-12-22T17:40:53;21.60;99.90
63875;DHT22;51595;24.180;-110.296;2022-12-22T17:43:21;21.60;99.90
63875;DHT22;51595;24.180;-110.296;2022-12-22T17:45:48;22.00;99.90
63875;DHT22;51595;24.180;-110.296;2022-12-22T17:48:15;22.00;99.90
63875;DHT22;51595;24.180;-110.296;2022-12-22T17:50:43;21.90;99.90
63875;DHT22;51595;24.180;-110.296;2022-12-22T17:53:16;21.90;99.90
63875;DHT22;51595;24.180;-110.296;2022-12-22T17:55:45;21.90;99.90
63875;DHT22;51595;24.180;-110.296;2022-12-22T17:58:14;22.40;99.90
63875;DHT22;51595;24.180;-110.296;2022-12-22T18:00:41;22.80;99.90